ADDS METAR Data INFO
IDs: Format: Raw Decoded Include TAF

Data at: 0738 UTC 23 Jul 2018

KDAY 230656Z 01008KT 10SM BKN029 OVC038 18/16 A2985 RMK AO2 SLP100 T01780161
KDAY 230556Z 03009KT 10SM OVC029 18/16 A2985 RMK AO2 SLP101 T01830161 10222 20178 58008
KDAY 230456Z 01006KT 10SM OVC029 18/16 A2987 RMK AO2 SLP108 T01780161 402670178
KDAY 230356Z 35006KT 10SM BKN021 OVC250 18/17 A2988 RMK AO2 SLP111 T01830167
KDAY 230352Z 36007KT 10SM BKN021 OVC250 18/16 A2988 RMK AO2
KDAY 230256Z 01007KT 10SM FEW016 SCT250 18/16 A2988 RMK AO2 SLP111 T01830161 51020
KDAY 230156Z 03009KT 10SM FEW020 BKN250 19/16 A2986 RMK AO2 SLP107 T01890161
KDAY 230141Z 04010KT 10SM SCT018 BKN250 19/17 A2986 RMK AO2 T01940167
KDAY 230056Z 04013KT 10SM BKN020 20/17 A2985 RMK AO2 SLP101 T02000172
KDAY 230047Z 04012KT 10SM BKN020 BKN250 20/17 A2984 RMK AO2 T02000172
KDAY 222356Z 04013KT 10SM FEW028 FEW250 22/18 A2981 RMK AO2 SLP089 T02220178 10267 20222 53015
KDAY 222256Z 36013KT 10SM FEW028 FEW140 24/17 A2979 RMK AO2 SLP081 T02440172
KDAY 222156Z 02015KT 10SM FEW028 SCT140 25/18 A2978 RMK AO2 SLP078 T02500178
KDAY 222056Z 01017KT 10SM FEW032 BKN140 26/18 A2977 RMK AO2 SLP072 T02610183 53000
KDAY 221956Z 05015G19KT 10SM SCT032 BKN042 BKN075 BKN140 26/18 A2977 RMK AO2 SLP071 T02560183
KDAY 221916Z 04013KT 10SM FEW027 SCT040 BKN055 OVC140 26/18 A2977 RMK AO2 CIG 044 RWY 6L T02560183
KDAY 221856Z 03012KT 10SM BKN027 OVC038 25/19 A2977 RMK AO2 SLP072 T02500189
KDAY 221854Z 05010KT 10SM BKN027 BKN038 24/19 A2977 RMK AO2
KDAY 221756Z 05011KT 10SM SCT022 BKN030 24/18 A2978 RMK AO2 SLP076 T02440183 10244 20194 50000
KDAY 221751Z 05012KT 10SM FEW022 BKN030 24/18 A2978 RMK AO2
KDAY 221656Z 03011KT 10SM SCT017 BKN024 OVC030 23/19 A2978 RMK AO2 SLP078 T02330189
KDAY 221556Z 36009KT 10SM BKN014 OVC022 22/19 A2978 RMK AO2 SLP076 T02170189
KDAY 221456Z 04009KT 10SM SCT013 OVC022 22/19 A2976 RMK AO2 SLP069 T02220194 52008
KDAY 221356Z 02007KT 10SM SCT011 OVC016 21/19 A2975 RMK AO2 SLP068 T02060189
KDAY 221309Z 02009KT 8SM FEW007 BKN015 OVC130 21/19 A2974 RMK AO2 T02060189
KDAY 221256Z 03011KT 9SM BKN015 OVC130 21/19 A2974 RMK AO2 SLP063 T02060189
KDAY 221156Z 03008KT 7SM FEW006 BKN013 OVC130 19/18 A2973 RMK AO2 SLP061 BINOVC 70004 T01940183 10194 20189 53010
KDAY 221138Z 04008KT 7SM SCT008 OVC130 19/18 A2973 RMK AO2 BINOVC T01940183
KDAY 221056Z 03006KT 7SM BKN007 OVC012 19/18 A2971 RMK AO2 SLP055 T01890183
KDAY 220956Z 01005KT 10SM OVC009 19/18 A2971 RMK AO2 SLP053 T01940183
KDAY 220856Z 05006KT 7SM OVC005 19/19 A2970 RMK AO2 SLP050 T01940189 56004
KDAY 220756Z 07003KT 5SM BR BKN003 OVC008 19/19 A2970 RMK AO2 SLP052 T01940194
KDAY 220656Z 05004KT 6SM BR BKN003 OVC009 19/19 A2971 RMK AO2 SLP053 T01940194
KDAY 220643Z 09006KT 5SM BR BKN003 OVC009 19/19 A2971 RMK AO2 T01940194
KDAY 220556Z 05005KT 1/2SM R06L/P6000FT BR BKN001 OVC006 19/19 A2971 RMK AO2 SFC VIS 4 SLP054 60000 T01940194 10222 20194 58006
KDAY 220554Z 06005KT 1/2SM R06L/P6000FT BR BKN001 OVC006 19/19 A2971 RMK AO2 SFC VIS 4
KDAY 220456Z 14004KT 9SM OVC004 20/20 A2972 RMK AO2 SLP059 T02000200 402440178
KDAY 220356Z 14004KT 10SM BKN004 OVC042 21/19 A2973 RMK AO2 SLP060 T02060194
KDAY 220350Z 12004KT 10SM FEW004 OVC042 20/19 A2973 RMK AO2
KDAY 220256Z 12006KT 10SM SCT031 BKN040 OVC120 21/20 A2974 RMK AO2 RAE14 SLP065 P0000 60000 T02060200 51002
KDAY 220156Z 14005KT 10SM -RA FEW060 OVC120 21/20 A2974 RMK AO2 RAB15 SLP064 P0000 T02060200
KDAY 220056Z 17005KT 10SM FEW040 BKN075 BKN110 OVC180 21/20 A2974 RMK AO2 RAE03 SLP064 P0000 T02110200
KDAY 212356Z 21006KT 10SM -RA SCT023 BKN035 OVC110 22/20 A2974 RMK AO2 RAB36 SLP063 P0000 60002 T02220200 10244 20211 53002
KDAY 212256Z 22006KT 10SM FEW026 BKN032 BKN060 BKN180 23/19 A2973 RMK AO2 SLP061 T02280189
KDAY 212156Z 19004KT 10SM FEW030 BKN050 BKN180 24/19 A2973 RMK AO2 SLP060 T02390194
KDAY 212135Z 20007KT 10SM SCT020 BKN050 BKN180 23/19 A2973 RMK AO2 T02330189
KDAY 212056Z 24007KT 10SM BKN020 BKN100 23/19 A2973 RMK AO2 SLP060 60002 T02330189 58007
KDAY 212040Z 23004KT 10SM BKN018 BKN100 BKN210 23/19 A2973 RMK AO2 T02280189
KDAY 212003Z AUTO 25008KT 10SM FEW070 22/19 A2974 RMK AO2 T02220189
KDAY 211956Z 26011KT 10SM SCT019 BKN024 BKN033 22/19 A2974 RMK AO2 SLP066 T02220189